createdAt,value
2023-05-05T00:01:09.060Z,99111.47
2023-05-05T00:03:35.782Z,99120.47
2023-05-05T00:06:03.140Z,99118.47
2023-05-05T00:08:29.944Z,99116.78
2023-05-05T00:10:57.383Z,99123.28
2023-05-05T00:13:24.287Z,99122.28
2023-05-05T00:15:53.619Z,99120.50
2023-05-05T00:18:20.630Z,99118.50
2023-05-05T00:20:47.791Z,99116.69
2023-05-05T00:23:17.684Z,99117.06
2023-05-05T00:25:44.388Z,99113.34
2023-05-05T00:28:11.009Z,99105.94
2023-05-05T00:30:38.439Z,99114.09
2023-05-05T00:33:05.078Z,99107.66
2023-05-05T00:35:31.494Z,99109.09
2023-05-05T00:37:58.224Z,99101.69
2023-05-05T00:40:25.281Z,99100.50
2023-05-05T00:42:52.080Z,99109.44
2023-05-05T00:45:20.317Z,99117.97
2023-05-05T00:47:51.471Z,99127.41
2023-05-05T00:50:27.112Z,99117.91
2023-05-05T00:52:56.220Z,99117.44
2023-05-05T00:55:22.744Z,99112.56
2023-05-05T00:57:49.837Z,99106.84
2023-05-05T01:00:18.194Z,99106.16
2023-05-05T01:02:44.881Z,99107.19
2023-05-05T01:05:13.454Z,99109.16
2023-05-05T01:07:49.586Z,99116.47
2023-05-05T01:10:37.998Z,99117.69
2023-05-05T01:13:18.140Z,99112.59
2023-05-05T01:15:51.806Z,99122.41
2023-05-05T01:18:43.220Z,99125.31
2023-05-05T01:21:15.349Z,99129.91
2023-05-05T01:23:54.000Z,99130.09
2023-05-05T01:26:51.280Z,99127.25
2023-05-05T01:29:48.688Z,99127.41
2023-05-05T01:32:19.056Z,99134.13
2023-05-05T01:34:55.977Z,99126.22
2023-05-05T01:37:28.203Z,99136.03
2023-05-05T01:39:59.206Z,99134.84
2023-05-05T01:42:28.158Z,99147.81
2023-05-05T01:44:56.418Z,99146.13
2023-05-05T01:47:24.656Z,99148.16
2023-05-05T01:49:52.260Z,99140.53
2023-05-05T01:52:19.630Z,99137.34
2023-05-05T01:54:47.876Z,99146.91
2023-05-05T01:57:15.558Z,99147.78
2023-05-05T01:59:42.280Z,99146.06
2023-05-05T02:04:44.821Z,99142.34
2023-05-05T02:07:13.985Z,99150.75
2023-05-05T02:09:42.399Z,99157.16
2023-05-05T02:12:09.992Z,99151.09
2023-05-05T02:14:38.653Z,99155.78
2023-05-05T02:17:05.050Z,99157.13
2023-05-05T02:19:43.247Z,99162.31
2023-05-05T02:22:10.278Z,99154.38
2023-05-05T02:24:36.852Z,99162.81
2023-05-05T02:27:06.531Z,99159.97
2023-05-05T02:29:37.034Z,99158.75
2023-05-05T02:32:11.244Z,99162.63
2023-05-05T02:34:40.160Z,99160.56
2023-05-05T02:37:09.720Z,99159.72
2023-05-05T02:39:47.357Z,99166.81
2023-05-05T02:42:21.736Z,99170.19
2023-05-05T02:44:50.686Z,99175.06
2023-05-05T02:47:39.018Z,99168.22
2023-05-05T02:50:07.259Z,99170.91
2023-05-05T02:52:35.049Z,99176.47
2023-05-05T02:55:03.981Z,99177.00
2023-05-05T02:57:52.410Z,99181.38
2023-05-05T03:00:43.931Z,99176.19
2023-05-05T03:03:17.574Z,99175.69
2023-05-05T03:05:55.714Z,99188.13
2023-05-05T03:08:32.735Z,99191.00
2023-05-05T03:11:04.493Z,99191.50
2023-05-05T03:13:34.562Z,99188.59
2023-05-05T03:16:06.947Z,99185.41
2023-05-05T03:18:37.879Z,99189.59
2023-05-05T03:21:13.448Z,99194.47
2023-05-05T03:23:40.190Z,99197.78
2023-05-05T03:26:06.550Z,99196.25
2023-05-05T03:28:32.931Z,99207.38
2023-05-05T03:30:59.424Z,99202.47
2023-05-05T03:33:26.394Z,99208.31
2023-05-05T03:35:52.763Z,99200.56
2023-05-05T03:38:19.343Z,99204.25
2023-05-05T03:40:45.790Z,99206.75
2023-05-05T03:43:12.321Z,99202.69
2023-05-05T03:45:39.322Z,99207.22
2023-05-05T03:48:06.399Z,99209.91
2023-05-05T03:50:32.814Z,99204.06
2023-05-05T03:52:59.205Z,99211.16
2023-05-05T03:55:25.784Z,99206.75
2023-05-05T03:57:52.157Z,99217.69
2023-05-05T04:00:18.963Z,99212.75
2023-05-05T04:02:45.855Z,99214.78
2023-05-05T04:05:12.262Z,99231.59
2023-05-05T04:07:39.078Z,99224.91
2023-05-05T04:10:06.761Z,99231.97
2023-05-05T04:12:33.373Z,99231.34
2023-05-05T04:14:59.891Z,99235.75
2023-05-05T04:17:26.382Z,99233.44
2023-05-05T04:19:52.820Z,99232.59
2023-05-05T04:22:19.270Z,99240.63
2023-05-05T04:24:46.169Z,99236.88
2023-05-05T04:27:12.588Z,99225.28
2023-05-05T04:29:39.453Z,99230.66
2023-05-05T04:32:06.182Z,99236.41
2023-05-05T04:34:33.119Z,99238.09
2023-05-05T04:36:59.572Z,99238.59
2023-05-05T04:39:26.101Z,99241.88
2023-05-05T04:41:52.512Z,99249.00
2023-05-05T04:44:19.238Z,99259.47
2023-05-05T04:46:45.837Z,99256.16
2023-05-05T04:49:12.212Z,99249.31
2023-05-05T04:51:42.111Z,99258.94
2023-05-05T04:54:09.329Z,99253.75
2023-05-05T04:56:36.254Z,99249.97
2023-05-05T04:59:02.861Z,99248.81
2023-05-05T05:01:29.610Z,99254.72
2023-05-05T05:03:56.094Z,99254.00
2023-05-05T05:06:22.774Z,99235.72
2023-05-05T05:08:49.135Z,99222.28
2023-05-05T05:11:15.516Z,99225.41
2023-05-05T05:13:41.954Z,99225.44
2023-05-05T05:16:08.388Z,99224.25
2023-05-05T05:18:34.783Z,99224.59
2023-05-05T05:21:01.383Z,99218.00
2023-05-05T05:23:28.084Z,99230.72
2023-05-05T05:25:54.574Z,99229.16
2023-05-05T05:28:21.278Z,99233.00
2023-05-05T05:30:47.720Z,99226.56
2023-05-05T05:33:14.536Z,99232.22
2023-05-05T05:35:40.956Z,99236.84
2023-05-05T05:38:07.506Z,99238.13
2023-05-05T05:40:33.930Z,99235.75
2023-05-05T05:43:00.350Z,99243.97
2023-05-05T05:45:26.795Z,99240.19
2023-05-05T05:47:53.205Z,99244.56
2023-05-05T05:50:20.132Z,99250.25
2023-05-05T05:52:46.980Z,99246.56
2023-05-05T05:55:13.433Z,99253.16
2023-05-05T05:57:39.810Z,99245.38
2023-05-05T06:00:07.108Z,99257.25
2023-05-05T06:02:33.853Z,99253.97
2023-05-05T06:05:00.510Z,99253.50
2023-05-05T06:07:26.913Z,99256.25
2023-05-05T06:09:53.322Z,99251.34
2023-05-05T06:12:19.801Z,99248.00
2023-05-05T06:14:46.333Z,99250.59
2023-05-05T06:17:13.084Z,99244.53
2023-05-05T06:19:40.900Z,99242.44
2023-05-05T06:22:07.346Z,99251.63
2023-05-05T06:24:33.732Z,99253.88
2023-05-05T06:27:00.516Z,99250.66
2023-05-05T06:29:26.868Z,99260.22
2023-05-05T06:31:53.321Z,99257.22
2023-05-05T06:34:20.157Z,99255.38
2023-05-05T06:36:46.715Z,99260.75
2023-05-05T06:39:15.309Z,99257.56
2023-05-05T06:41:42.395Z,99273.00
2023-05-05T06:44:10.551Z,99269.56
2023-05-05T06:46:37.548Z,99269.63
2023-05-05T06:49:03.953Z,99271.41
2023-05-05T06:51:31.621Z,99285.16
2023-05-05T06:53:57.975Z,99283.41
2023-05-05T06:56:24.366Z,99286.84
2023-05-05T06:58:50.736Z,99276.88
2023-05-05T07:01:17.861Z,99282.19
2023-05-05T07:03:44.851Z,99292.38
2023-05-05T07:06:11.329Z,99281.81
2023-05-05T07:08:37.811Z,99286.28
2023-05-05T07:11:04.189Z,99286.00
2023-05-05T07:13:31.097Z,99284.56
2023-05-05T07:15:57.560Z,99278.78
2023-05-05T07:18:23.958Z,99280.69
2023-05-05T07:20:50.342Z,99283.22
2023-05-05T07:23:16.730Z,99277.63
2023-05-05T07:25:44.097Z,99284.66
2023-05-05T07:28:11.007Z,99279.50
2023-05-05T07:30:37.400Z,99280.47
2023-05-05T07:33:03.950Z,99278.00
2023-05-05T07:35:30.412Z,99287.66
2023-05-05T07:37:57.045Z,99291.91
2023-05-05T07:40:23.496Z,99293.22
2023-05-05T07:42:50.284Z,99289.06
2023-05-05T07:45:16.777Z,99295.16
2023-05-05T07:47:43.523Z,99297.91
2023-05-05T07:50:10.475Z,99288.25
2023-05-05T07:52:45.012Z,99293.91
2023-05-05T07:55:15.075Z,99292.00
2023-05-05T07:57:41.588Z,99291.59
2023-05-05T08:00:09.447Z,99290.78
2023-05-05T08:02:36.214Z,99290.59
2023-05-05T08:05:03.044Z,99286.22
2023-05-05T08:07:29.434Z,99284.13
2023-05-05T08:09:55.813Z,99287.50
2023-05-05T08:12:22.328Z,99283.13
2023-05-05T08:14:48.703Z,99280.00
2023-05-05T08:17:15.108Z,99284.63
2023-05-05T08:19:41.521Z,99279.41
2023-05-05T08:22:08.193Z,99291.34
2023-05-05T08:24:34.717Z,99291.34
2023-05-05T08:27:02.327Z,99293.25
2023-05-05T08:29:29.079Z,99293.06
2023-05-05T08:31:55.605Z,99283.41
2023-05-05T08:34:22.058Z,99284.22
2023-05-05T08:36:50.286Z,99286.34
2023-05-05T08:39:16.879Z,99284.84
2023-05-05T08:41:43.324Z,99271.22
2023-05-05T08:44:10.385Z,99280.44
2023-05-05T08:46:38.537Z,99285.72
2023-05-05T08:49:06.074Z,99276.69
2023-05-05T08:51:41.098Z,99274.59
2023-05-05T08:54:12.257Z,99277.09
2023-05-05T08:56:42.131Z,99268.94
2023-05-05T08:59:11.046Z,99268.50
2023-05-05T09:01:38.465Z,99260.91
2023-05-05T09:04:05.228Z,99266.16
2023-05-05T09:06:34.217Z,99260.25
2023-05-05T09:09:01.185Z,99261.13
2023-05-05T09:11:28.347Z,99264.25
2023-05-05T09:13:56.353Z,99269.41
2023-05-05T09:16:23.126Z,99275.66
2023-05-05T09:18:49.789Z,99277.53
2023-05-05T09:21:24.572Z,99273.22
2023-05-05T09:24:08.109Z,99275.44
2023-05-05T09:26:44.994Z,99277.41
2023-05-05T09:29:20.940Z,99271.56
2023-05-05T09:32:11.293Z,99271.16
2023-05-05T09:34:37.950Z,99272.41
2023-05-05T09:37:04.548Z,99269.66
2023-05-05T09:39:31.014Z,99272.88
2023-05-05T09:41:58.622Z,99260.28
2023-05-05T09:44:36.352Z,99260.50
2023-05-05T09:47:07.195Z,99257.69
2023-05-05T09:49:39.313Z,99268.13
2023-05-05T09:52:17.262Z,99256.13
2023-05-05T09:54:44.445Z,99262.66
2023-05-05T10:00:02.077Z,99255.09
2023-05-05T10:02:36.652Z,99258.28
2023-05-05T10:05:17.539Z,99262.94
2023-05-05T10:07:46.938Z,99265.41
2023-05-05T10:10:17.118Z,99257.97
2023-05-05T10:12:46.494Z,99262.88
2023-05-05T10:15:15.645Z,99258.97
2023-05-05T10:17:58.325Z,99257.00
2023-05-05T10:20:33.659Z,99248.06
2023-05-05T10:23:05.581Z,99243.25
2023-05-05T10:25:39.139Z,99241.75
2023-05-05T10:28:09.601Z,99234.91
2023-05-05T10:30:42.962Z,99225.72
2023-05-05T10:33:31.777Z,99230.41
2023-05-05T10:36:02.456Z,99225.19
2023-05-05T10:38:30.866Z,99227.44
2023-05-05T10:41:00.188Z,99226.78
2023-05-05T10:43:28.103Z,99224.47
2023-05-05T10:45:55.911Z,99226.44
2023-05-05T10:48:32.789Z,99213.00
2023-05-05T10:51:08.284Z,99209.97
2023-05-05T10:54:00.452Z,99212.38
2023-05-05T10:56:32.401Z,99205.44
2023-05-05T10:59:00.458Z,99207.84
2023-05-05T11:01:33.222Z,99205.91
2023-05-05T11:04:23.655Z,99197.78
2023-05-05T11:07:27.333Z,99217.56
2023-05-05T11:09:58.527Z,99221.25
2023-05-05T11:12:24.947Z,99230.75
2023-05-05T11:15:31.746Z,99230.63
2023-05-05T11:18:00.000Z,99257.88
2023-05-05T11:20:36.358Z,99286.03
2023-05-05T11:23:02.871Z,99327.19
2023-05-05T11:25:36.166Z,99335.94
2023-05-05T11:28:08.595Z,99339.41
2023-05-05T11:30:59.174Z,99352.94
2023-05-05T11:33:39.384Z,99365.91
2023-05-05T11:36:13.733Z,99375.50
2023-05-05T11:38:58.473Z,99375.19
2023-05-05T11:41:34.367Z,99378.94
2023-05-05T11:44:20.149Z,99360.09
2023-05-05T11:46:52.511Z,99349.69
2023-05-05T11:49:29.844Z,99352.88
2023-05-05T11:52:06.945Z,99361.69
2023-05-05T11:54:35.773Z,99368.81
2023-05-05T11:57:07.761Z,99355.78
2023-05-05T11:59:49.814Z,99311.53
2023-05-05T12:02:18.576Z,99296.22
2023-05-05T12:04:45.378Z,99280.69
2023-05-05T12:07:19.256Z,99290.13
2023-05-05T12:09:48.540Z,99285.16
2023-05-05T12:12:15.985Z,99298.06
2023-05-05T12:14:53.060Z,99294.13
2023-05-05T12:17:21.510Z,99338.38
2023-05-05T12:19:52.879Z,99340.78
2023-05-05T12:22:26.736Z,99321.81
2023-05-05T12:24:57.028Z,99323.63
2023-05-05T12:27:24.360Z,99321.69
2023-05-05T12:29:51.320Z,99308.50
2023-05-05T12:32:19.196Z,99310.78
2023-05-05T12:34:46.127Z,99307.19
2023-05-05T12:37:12.770Z,99297.53
2023-05-05T12:39:39.560Z,99291.22
2023-05-05T12:42:06.401Z,99296.97
2023-05-05T12:44:40.133Z,99287.81
2023-05-05T12:47:07.165Z,99302.03
2023-05-05T12:49:47.203Z,99310.25
2023-05-05T12:52:14.326Z,99310.69
2023-05-05T12:55:00.985Z,99301.81
2023-05-05T12:57:27.759Z,99300.66
2023-05-05T12:59:54.741Z,99295.28
2023-05-05T13:02:21.495Z,99306.31
2023-05-05T13:04:52.929Z,99307.06
2023-05-05T13:07:22.687Z,99298.25
2023-05-05T13:09:50.303Z,99294.69
2023-05-05T13:12:21.109Z,99300.53
2023-05-05T13:14:48.759Z,99299.63
2023-05-05T13:17:15.202Z,99297.22
2023-05-05T13:19:42.928Z,99288.69
2023-05-05T13:22:12.891Z,99288.84
2023-05-05T13:24:51.020Z,99296.22
2023-05-05T13:27:19.178Z,99294.59
2023-05-05T13:29:45.901Z,99294.13
2023-05-05T13:32:12.675Z,99276.53
2023-05-05T13:34:39.269Z,99275.59
2023-05-05T13:37:06.508Z,99281.19
2023-05-05T13:39:33.029Z,99271.63
2023-05-05T13:41:59.786Z,99268.28
2023-05-05T13:44:26.196Z,99275.22
2023-05-05T13:46:52.981Z,99279.06
2023-05-05T13:49:20.073Z,99274.19
2023-05-05T13:51:46.878Z,99271.00
2023-05-05T13:54:13.566Z,99261.78
2023-05-05T13:56:40.031Z,99259.06
2023-05-05T13:59:06.435Z,99258.41
2023-05-05T14:01:32.969Z,99255.19
2023-05-05T14:04:00.475Z,99258.16
2023-05-05T14:06:28.504Z,99253.91
2023-05-05T14:08:55.368Z,99247.31
2023-05-05T14:11:21.746Z,99233.00
2023-05-05T14:13:49.280Z,99238.06
2023-05-05T14:16:15.848Z,99235.44
2023-05-05T14:18:42.854Z,99232.44
2023-05-05T14:21:09.645Z,99241.97
2023-05-05T14:23:36.302Z,99240.31
2023-05-05T14:26:02.794Z,99238.69
2023-05-05T14:28:29.214Z,99236.34
2023-05-05T14:30:56.074Z,99231.19
2023-05-05T14:33:22.622Z,99230.72
2023-05-05T14:35:49.362Z,99233.47
2023-05-05T14:38:15.884Z,99233.75
2023-05-05T14:40:42.357Z,99231.97
2023-05-05T14:43:08.797Z,99236.47
2023-05-05T14:45:35.400Z,99246.19
2023-05-05T14:48:02.559Z,99235.78
2023-05-05T14:50:29.418Z,99237.53
2023-05-05T14:52:55.848Z,99236.31
2023-05-05T14:55:22.685Z,99227.38
2023-05-05T14:57:49.075Z,99221.69
2023-05-05T15:00:15.761Z,99211.41
2023-05-05T15:02:42.385Z,99195.38
2023-05-05T15:05:09.168Z,99201.91
2023-05-05T15:07:35.735Z,99195.91
2023-05-05T15:10:02.183Z,99193.25
2023-05-05T15:12:28.836Z,99184.53
2023-05-05T15:14:55.451Z,99192.50
2023-05-05T15:17:22.064Z,99201.91
2023-05-05T15:19:48.519Z,99198.50
2023-05-05T15:22:14.877Z,99197.78
2023-05-05T15:24:41.549Z,99200.19
2023-05-05T15:27:08.155Z,99200.25
2023-05-05T15:29:34.684Z,99190.34
2023-05-05T15:32:01.193Z,99196.66
2023-05-05T15:34:27.719Z,99195.44
2023-05-05T15:36:54.819Z,99194.00
2023-05-05T15:39:21.163Z,99197.09
2023-05-05T15:41:47.840Z,99201.91
2023-05-05T15:44:14.310Z,99202.66
2023-05-05T15:46:41.421Z,99207.63
2023-05-05T15:49:07.912Z,99218.69
2023-05-05T15:51:34.717Z,99228.25
2023-05-05T15:54:01.502Z,99222.53
2023-05-05T15:56:29.232Z,99214.47
2023-05-05T15:58:56.595Z,99209.44
2023-05-05T16:01:23.127Z,99209.34
2023-05-05T16:03:49.563Z,99207.13
2023-05-05T16:06:15.958Z,99189.94
2023-05-05T16:08:42.351Z,99199.69
2023-05-05T16:11:09.057Z,99200.47
2023-05-05T16:13:35.438Z,99206.22
2023-05-05T16:16:01.824Z,99209.19
2023-05-05T16:18:28.269Z,99211.78
2023-05-05T16:20:54.637Z,99213.16
2023-05-05T16:23:21.110Z,99224.03
2023-05-05T16:25:47.707Z,99221.13
2023-05-05T16:28:14.126Z,99220.59
2023-05-05T16:30:42.673Z,99243.03
2023-05-05T16:33:09.218Z,99262.94
2023-05-05T16:35:36.575Z,99269.81
2023-05-05T16:38:03.063Z,99269.22
2023-05-05T16:40:29.737Z,99274.47
2023-05-05T16:42:56.472Z,99273.84
2023-05-05T16:45:24.703Z,99298.78
2023-05-05T16:47:51.511Z,99291.38
2023-05-05T16:50:17.987Z,99298.88
2023-05-05T16:52:44.600Z,99296.50
2023-05-05T16:55:11.240Z,99285.56
2023-05-05T16:57:37.993Z,99284.16
2023-05-05T17:00:06.309Z,99282.03
2023-05-05T17:02:33.152Z,99275.22
2023-05-05T17:04:59.616Z,99281.88
2023-05-05T17:07:26.058Z,99293.03
2023-05-05T17:09:52.463Z,99274.47
2023-05-05T17:12:18.987Z,99289.88
2023-05-05T17:14:45.880Z,99289.03
2023-05-05T17:17:12.800Z,99300.22
2023-05-05T17:19:39.234Z,99294.97
2023-05-05T17:22:05.762Z,99302.75
2023-05-05T17:24:32.234Z,99304.78
2023-05-05T17:26:59.544Z,99298.72
2023-05-05T17:29:26.459Z,99300.56
2023-05-05T17:31:54.342Z,99304.31
2023-05-05T17:34:20.915Z,99303.09
2023-05-05T17:36:47.442Z,99303.13
2023-05-05T17:39:13.883Z,99309.88
2023-05-05T17:41:41.904Z,99306.16
2023-05-05T17:44:08.306Z,99309.88
2023-05-05T17:46:34.976Z,99307.84
2023-05-05T17:49:01.529Z,99313.41
2023-05-05T17:51:28.405Z,99313.91
2023-05-05T17:53:54.768Z,99308.00
2023-05-05T17:56:22.197Z,99316.09
2023-05-05T17:58:49.266Z,99315.13
2023-05-05T18:01:26.671Z,99316.44
2023-05-05T18:03:53.360Z,99308.69
2023-05-05T18:06:19.779Z,99315.94
2023-05-05T18:08:46.841Z,99311.91
2023-05-05T18:11:13.365Z,99309.03
2023-05-05T18:13:40.156Z,99317.13
2023-05-05T18:16:06.881Z,99308.69
2023-05-05T18:18:33.414Z,99316.44
2023-05-05T18:21:00.160Z,99319.16
2023-05-05T18:23:26.648Z,99317.47
2023-05-05T18:25:53.029Z,99322.38
2023-05-05T18:28:20.250Z,99324.56
2023-05-05T18:30:46.662Z,99330.97
2023-05-05T18:33:13.288Z,99326.59
2023-05-05T18:35:39.656Z,99332.66
2023-05-05T18:38:06.135Z,99332.66
2023-05-05T18:40:32.939Z,99327.41
2023-05-05T18:42:59.318Z,99328.97
2023-05-05T18:45:26.247Z,99324.91
2023-05-05T18:47:52.668Z,99327.09
2023-05-05T18:50:19.165Z,99326.94
2023-05-05T18:52:45.621Z,99335.03
2023-05-05T18:55:11.997Z,99334.69
2023-05-05T18:57:38.489Z,99338.19
2023-05-05T19:00:05.458Z,99344.28
2023-05-05T19:02:31.898Z,99341.06
2023-05-05T19:04:58.394Z,99337.50
2023-05-05T19:07:34.246Z,99347.63
2023-05-05T19:10:01.713Z,99354.06
2023-05-05T19:12:28.292Z,99357.41
2023-05-05T19:14:54.728Z,99364.66
2023-05-05T19:17:21.274Z,99365.34
2023-05-05T19:19:47.631Z,99366.50
2023-05-05T19:22:17.138Z,99372.06
2023-05-05T19:24:43.501Z,99375.06
2023-05-05T19:27:15.530Z,99379.94
2023-05-05T19:29:43.022Z,99381.09
2023-05-05T19:32:09.818Z,99393.59
2023-05-05T19:34:36.545Z,99394.94
2023-05-05T19:37:03.068Z,99402.47
2023-05-05T19:39:29.456Z,99411.03
2023-05-05T19:41:55.864Z,99414.38
2023-05-05T19:44:23.139Z,99412.19
2023-05-05T19:46:49.657Z,99410.38
2023-05-05T19:49:16.302Z,99419.44
2023-05-05T19:51:43.937Z,99431.25
2023-05-05T19:54:10.449Z,99427.59
2023-05-05T19:56:36.927Z,99432.00
2023-05-05T19:59:06.349Z,99428.78
2023-05-05T20:01:33.834Z,99426.09
2023-05-05T20:04:00.796Z,99423.88
2023-05-05T20:06:28.029Z,99425.72
2023-05-05T20:08:55.411Z,99424.72
2023-05-05T20:11:22.102Z,99422.50
2023-05-05T20:13:49.883Z,99426.53
2023-05-05T20:16:16.547Z,99421.47
2023-05-05T20:18:43.347Z,99418.75
2023-05-05T20:21:10.124Z,99416.38
2023-05-05T20:23:37.257Z,99409.94
2023-05-05T20:26:03.975Z,99420.81
2023-05-05T20:28:31.628Z,99416.03
2023-05-05T20:30:58.481Z,99407.28
2023-05-05T20:33:24.907Z,99412.28
2023-05-05T20:35:51.715Z,99407.25
2023-05-05T20:38:18.176Z,99411.59
2023-05-05T20:40:44.567Z,99404.56
2023-05-05T20:43:10.990Z,99418.25
2023-05-05T20:45:37.437Z,99421.94
2023-05-05T20:48:05.314Z,99421.34
2023-05-05T20:50:32.089Z,99416.56
2023-05-05T20:52:58.760Z,99413.78
2023-05-05T20:55:25.964Z,99421.03
2023-05-05T20:57:52.396Z,99421.31
2023-05-05T21:00:18.795Z,99414.81
2023-05-05T21:02:45.460Z,99413.50
2023-05-05T21:05:12.460Z,99407.81
2023-05-05T21:07:38.946Z,99399.56
2023-05-05T21:10:05.939Z,99400.00
2023-05-05T21:12:34.352Z,99404.28
2023-05-05T21:15:01.302Z,99396.16
2023-05-05T21:17:28.787Z,99397.03
2023-05-05T21:19:57.481Z,99399.88
2023-05-05T21:22:23.941Z,99400.75
2023-05-05T21:24:50.943Z,99406.72
2023-05-05T21:27:17.302Z,99396.16
2023-05-05T21:29:43.683Z,99396.16
2023-05-05T21:32:11.449Z,99399.13
2023-05-05T21:34:38.832Z,99396.59
2023-05-05T21:37:06.426Z,99398.84
2023-05-05T21:39:33.198Z,99405.81
2023-05-05T21:42:00.812Z,99404.09
2023-05-05T21:44:28.115Z,99409.63
2023-05-05T21:46:55.740Z,99418.94
2023-05-05T21:49:22.192Z,99416.41
2023-05-05T21:51:48.571Z,99427.16
2023-05-05T21:54:14.932Z,99429.41
2023-05-05T21:56:41.362Z,99432.78
2023-05-05T21:59:07.784Z,99432.66
2023-05-05T22:01:34.759Z,99442.69
2023-05-05T22:04:01.505Z,99444.81
2023-05-05T22:06:28.043Z,99446.09
2023-05-05T22:08:54.569Z,99447.78
2023-05-05T22:11:21.255Z,99443.28
2023-05-05T22:13:47.696Z,99445.81
2023-05-05T22:16:17.411Z,99449.75
2023-05-05T22:18:44.168Z,99447.78
2023-05-05T22:21:10.770Z,99448.38
2023-05-05T22:23:37.344Z,99449.75
2023-05-05T22:26:04.762Z,99449.63
2023-05-05T22:28:31.280Z,99449.06
2023-05-05T22:30:57.724Z,99445.81
2023-05-05T22:33:24.366Z,99454.56
2023-05-05T22:35:51.958Z,99445.81
2023-05-05T22:38:18.361Z,99443.97
2023-05-05T22:40:44.929Z,99450.91
2023-05-05T22:43:11.441Z,99453.47
2023-05-05T22:45:38.007Z,99453.16
2023-05-05T22:48:04.759Z,99453.00
2023-05-05T22:50:34.902Z,99452.59
2023-05-05T22:53:01.289Z,99451.44
2023-05-05T22:55:27.654Z,99459.22
2023-05-05T22:57:54.078Z,99453.00
2023-05-05T23:00:20.484Z,99453.59
2023-05-05T23:02:46.899Z,99458.97
2023-05-05T23:05:13.334Z,99460.50
2023-05-05T23:07:39.718Z,99455.13
2023-05-05T23:10:06.641Z,99454.84
2023-05-05T23:12:33.112Z,99453.56
2023-05-05T23:14:59.528Z,99453.72
2023-05-05T23:17:25.990Z,99452.72
2023-05-05T23:19:52.478Z,99444.09
2023-05-05T23:22:18.893Z,99449.50
2023-05-05T23:24:45.322Z,99443.84
2023-05-05T23:27:12.515Z,99442.69
2023-05-05T23:29:39.100Z,99440.56
2023-05-05T23:32:06.284Z,99444.69
2023-05-05T23:34:32.839Z,99444.13
2023-05-05T23:36:59.317Z,99451.47
2023-05-05T23:39:25.766Z,99439.03
2023-05-05T23:41:52.260Z,99444.97
2023-05-05T23:44:18.693Z,99450.19
2023-05-05T23:46:45.285Z,99437.91
2023-05-05T23:49:11.745Z,99440.59
2023-05-05T23:51:38.221Z,99448.34
2023-05-05T23:54:04.626Z,99443.53
2023-05-05T23:56:31.091Z,99439.44
2023-05-05T23:58:57.494Z,99442.97
